Axtell, Kansas
Current Conditions -  °F | °C
As of 12:55 AM on Thursday 23 Oct 2014 (Local Time) from KMYZ Reporting Station
Light Rain Light Rain  
Wind Chill: 61°   Ceiling: 10000
Heat Index: 61°   Visibility: 10mi
Dew Point: 59°   Wind: 6mph
Humidity: 94%   Direction: 180°S
Pressure: 30.06"   Gusts: NA
Location:  39.87°N, 96.26°W
Report Text: KMYZ 230555Z AUTO 18005KT 10SM -RA SCT060 SCT075 BKN100 16/15 A3006 RMK AO2 P0006
Loading
Personal Weather Stations






























Interactive Weather Map
Tropical Storm Tracking
New forecast layout! Learn more

10-Day Weather Forecast

Advertisements
Track Severe Weather on mobile